createdAt,value
2019-03-17T00:00:18.090Z,12.33
2019-03-17T00:02:47.539Z,12.35
2019-03-17T00:05:17.063Z,12.37
2019-03-17T00:07:46.579Z,12.40
2019-03-17T00:10:16.139Z,12.44
2019-03-17T00:12:45.629Z,12.48
2019-03-17T00:15:15.262Z,12.50
2019-03-17T00:17:44.768Z,12.55
2019-03-17T00:20:14.296Z,12.59
2019-03-17T00:22:43.800Z,12.63
2019-03-17T00:25:13.429Z,12.67
2019-03-17T00:27:43.011Z,12.69
2019-03-17T00:30:13.250Z,12.71
2019-03-17T00:32:42.716Z,12.75
2019-03-17T00:35:12.319Z,12.77
2019-03-17T00:37:41.801Z,12.77
2019-03-17T00:40:12.076Z,12.80
2019-03-17T00:42:41.651Z,12.82
2019-03-17T00:45:12.442Z,12.85
2019-03-17T00:47:41.995Z,12.88
2019-03-17T00:50:12.482Z,12.90
2019-03-17T00:52:42.064Z,12.91
2019-03-17T00:55:11.701Z,12.94
2019-03-17T00:57:41.163Z,12.94
2019-03-17T01:00:17.481Z,12.96
2019-03-17T01:02:47.074Z,12.97
2019-03-17T01:05:16.658Z,12.99
2019-03-17T01:07:46.121Z,13.00
2019-03-17T01:10:15.748Z,13.01
2019-03-17T01:12:45.317Z,13.01
2019-03-17T01:15:14.788Z,13.02
2019-03-17T01:17:44.294Z,13.02
2019-03-17T01:20:13.829Z,13.04
2019-03-17T01:22:43.310Z,13.06
2019-03-17T01:25:12.872Z,13.07
2019-03-17T01:27:42.373Z,13.10
2019-03-17T01:30:13.384Z,13.09
2019-03-17T01:32:42.850Z,13.11
2019-03-17T01:35:12.493Z,13.10
2019-03-17T01:37:41.980Z,13.11
2019-03-17T01:40:11.972Z,13.11
2019-03-17T01:42:41.465Z,13.12
2019-03-17T01:45:11.482Z,13.14
2019-03-17T01:47:40.960Z,13.14
2019-03-17T01:50:11.016Z,13.14
2019-03-17T01:52:40.508Z,13.15
2019-03-17T01:55:10.041Z,13.15
2019-03-17T01:57:39.547Z,13.15
2019-03-17T02:00:12.816Z,13.15
2019-03-17T02:02:42.323Z,13.15
2019-03-17T02:05:21.267Z,13.15
2019-03-17T02:07:43.098Z,13.13
2019-03-17T02:10:12.982Z,13.14
2019-03-17T02:12:42.445Z,13.14
2019-03-17T02:15:12.187Z,13.13
2019-03-17T02:17:41.652Z,13.13
2019-03-17T02:20:11.800Z,13.13
2019-03-17T02:22:41.271Z,13.13
2019-03-17T02:25:10.839Z,13.12
2019-03-17T02:27:40.338Z,13.12
2019-03-17T02:30:12.703Z,13.13
2019-03-17T02:32:42.179Z,13.12
2019-03-17T02:35:11.656Z,13.12
2019-03-17T02:37:41.130Z,13.13
2019-03-17T02:40:10.736Z,13.13
2019-03-17T02:42:40.221Z,13.14
2019-03-17T02:45:11.029Z,13.15
2019-03-17T02:47:40.520Z,13.16
2019-03-17T02:50:10.688Z,13.14
2019-03-17T02:52:40.173Z,13.14
2019-03-17T02:55:10.303Z,13.12
2019-03-17T02:57:39.809Z,13.12
2019-03-17T03:00:11.324Z,13.10
2019-03-17T03:02:40.808Z,13.09
2019-03-17T03:05:10.472Z,13.08
2019-03-17T03:07:39.971Z,13.07
2019-03-17T03:10:17.694Z,13.06
2019-03-17T03:12:47.154Z,13.06
2019-03-17T03:15:16.649Z,13.05
2019-03-17T03:17:46.131Z,13.03
2019-03-17T03:20:15.751Z,13.01
2019-03-17T03:22:45.184Z,12.99
2019-03-17T03:25:14.716Z,12.98
2019-03-17T03:27:44.228Z,12.96
2019-03-17T03:30:14.533Z,12.93
2019-03-17T03:32:43.992Z,12.92
2019-03-17T03:35:13.581Z,12.91
2019-03-17T03:37:43.139Z,12.89
2019-03-17T03:40:13.636Z,12.86
2019-03-17T03:42:43.124Z,12.84
2019-03-17T03:45:14.246Z,12.83
2019-03-17T03:47:43.708Z,12.80
2019-03-17T03:50:13.655Z,12.79
2019-03-17T03:52:43.193Z,12.78
2019-03-17T03:55:12.814Z,12.77
2019-03-17T03:57:42.372Z,12.76
2019-03-17T04:00:15.055Z,12.76
2019-03-17T04:02:44.524Z,12.75
2019-03-17T04:05:14.003Z,12.76
2019-03-17T04:07:43.567Z,12.75
2019-03-17T04:10:13.303Z,12.74
2019-03-17T04:12:42.801Z,12.76
2019-03-17T04:15:13.597Z,12.75
2019-03-17T04:17:43.164Z,12.73
2019-03-17T04:20:13.528Z,12.73
2019-03-17T04:22:43.092Z,12.73
2019-03-17T04:25:14.395Z,12.73
2019-03-17T04:27:43.858Z,12.72
2019-03-17T04:30:13.453Z,12.72
2019-03-17T04:32:42.958Z,12.71
2019-03-17T04:35:12.496Z,12.72
2019-03-17T04:37:42.051Z,12.72
2019-03-17T04:40:12.123Z,12.72
2019-03-17T04:42:41.611Z,12.71
2019-03-17T04:45:11.742Z,12.71
2019-03-17T04:47:41.209Z,12.68
2019-03-17T04:50:11.345Z,12.67
2019-03-17T04:52:40.821Z,12.66
2019-03-17T04:55:10.532Z,12.65
2019-03-17T04:57:40.008Z,12.64
2019-03-17T05:00:13.032Z,12.63
2019-03-17T05:02:42.534Z,12.63
2019-03-17T05:05:12.131Z,12.62
2019-03-17T05:07:41.632Z,12.62
2019-03-17T05:10:11.566Z,12.62
2019-03-17T05:12:41.055Z,12.61
2019-03-17T05:15:12.235Z,12.62
2019-03-17T05:17:41.719Z,12.62
2019-03-17T05:20:11.849Z,12.60
2019-03-17T05:22:41.422Z,12.59
2019-03-17T05:25:11.054Z,12.58
2019-03-17T05:27:40.581Z,12.58
2019-03-17T05:30:12.093Z,12.56
2019-03-17T05:32:41.602Z,12.54
2019-03-17T05:35:11.145Z,12.55
2019-03-17T05:37:40.685Z,12.54
2019-03-17T05:40:11.737Z,12.54
2019-03-17T05:42:41.362Z,12.54
2019-03-17T05:45:11.087Z,12.53
2019-03-17T05:47:40.567Z,12.53
2019-03-17T05:50:11.218Z,12.52
2019-03-17T05:52:40.718Z,12.53
2019-03-17T05:55:11.432Z,12.52
2019-03-17T05:57:40.930Z,12.52
2019-03-17T06:00:16.598Z,12.52
2019-03-17T06:02:46.059Z,12.50
2019-03-17T06:05:15.596Z,12.47
2019-03-17T06:07:45.089Z,12.44
2019-03-17T06:10:14.573Z,12.41
2019-03-17T06:12:44.146Z,12.36
2019-03-17T06:15:13.753Z,12.33
2019-03-17T06:17:43.248Z,12.32
2019-03-17T06:20:13.651Z,12.28
2019-03-17T06:22:43.209Z,12.25
2019-03-17T06:25:12.884Z,12.20
2019-03-17T06:27:42.372Z,12.16
2019-03-17T06:30:13.742Z,12.14
2019-03-17T06:32:43.234Z,12.11
2019-03-17T06:35:12.762Z,12.07
2019-03-17T06:37:42.336Z,12.03
2019-03-17T06:40:14.978Z,12.00
2019-03-17T06:42:44.568Z,11.96
2019-03-17T06:45:14.166Z,11.93
2019-03-17T06:47:43.699Z,11.90
2019-03-17T06:50:15.102Z,11.87
2019-03-17T06:52:44.595Z,11.86
2019-03-17T06:55:17.665Z,11.82
2019-03-17T06:57:47.124Z,11.80
2019-03-17T07:00:16.754Z,11.77
2019-03-17T07:02:46.235Z,11.74
2019-03-17T07:05:15.786Z,11.72
2019-03-17T07:07:45.341Z,11.69
2019-03-17T07:10:14.878Z,11.69
2019-03-17T07:12:44.409Z,11.67
2019-03-17T07:15:14.047Z,11.65
2019-03-17T07:17:43.634Z,11.63
2019-03-17T07:20:15.280Z,11.60
2019-03-17T07:22:44.851Z,11.58
2019-03-17T07:25:14.491Z,11.57
2019-03-17T07:27:43.938Z,11.54
2019-03-17T07:30:17.316Z,11.52
2019-03-17T07:32:46.879Z,11.51
2019-03-17T07:35:16.430Z,11.49
2019-03-17T07:37:56.204Z,11.47
2019-03-17T07:40:17.385Z,11.45
2019-03-17T07:42:46.879Z,11.43
2019-03-17T07:45:16.431Z,11.43
2019-03-17T07:47:45.920Z,11.43
2019-03-17T07:50:15.459Z,11.43
2019-03-17T07:52:44.918Z,11.42
2019-03-17T07:55:14.521Z,11.40
2019-03-17T07:57:44.020Z,11.40
2019-03-17T08:00:14.780Z,11.37
2019-03-17T08:02:44.262Z,11.36
2019-03-17T08:05:13.840Z,11.34
2019-03-17T08:08:09.264Z,11.33
2019-03-17T08:10:33.991Z,11.32
2019-03-17T08:13:03.553Z,11.32
2019-03-17T08:15:33.034Z,11.31
2019-03-17T08:18:02.550Z,11.31
2019-03-17T08:20:32.041Z,11.30
2019-03-17T08:23:01.507Z,11.29
2019-03-17T08:25:30.988Z,11.28
2019-03-17T08:28:00.457Z,11.26
2019-03-17T08:30:29.957Z,11.25
2019-03-17T08:32:59.440Z,11.26
2019-03-17T08:35:28.986Z,11.24
2019-03-17T08:37:58.475Z,11.25
2019-03-17T08:40:28.063Z,11.26
2019-03-17T08:42:57.729Z,11.24
2019-03-17T08:45:27.183Z,11.27
2019-03-17T08:47:58.606Z,11.28
2019-03-17T08:50:27.944Z,11.30
2019-03-17T08:52:57.464Z,11.32
2019-03-17T08:55:26.899Z,11.34
2019-03-17T08:57:56.467Z,11.37
2019-03-17T09:00:25.953Z,11.39
2019-03-17T09:02:55.444Z,11.40
2019-03-17T09:05:26.504Z,11.42
2019-03-17T09:07:55.987Z,11.41
2019-03-17T09:10:25.493Z,11.42
2019-03-17T09:12:55.031Z,11.46
2019-03-17T09:15:24.659Z,11.46
2019-03-17T09:17:54.210Z,11.47
2019-03-17T09:20:23.715Z,11.49
2019-03-17T09:22:53.333Z,11.51
2019-03-17T09:25:22.824Z,11.52
2019-03-17T09:27:52.335Z,11.53
2019-03-17T09:30:21.963Z,11.54
2019-03-17T09:32:51.441Z,11.53
2019-03-17T09:35:20.928Z,11.52
2019-03-17T09:37:50.539Z,11.50
2019-03-17T09:40:20.187Z,11.50
2019-03-17T09:42:49.677Z,11.49
2019-03-17T09:45:19.271Z,11.47
2019-03-17T09:47:48.943Z,11.47
2019-03-17T09:50:20.226Z,11.50
2019-03-17T09:52:49.769Z,11.51
2019-03-17T09:55:19.245Z,11.55
2019-03-17T09:57:48.810Z,11.58
2019-03-17T10:00:20.225Z,11.59
2019-03-17T10:02:49.710Z,11.61
2019-03-17T10:05:19.221Z,11.63
2019-03-17T10:07:48.783Z,11.64
2019-03-17T10:10:23.477Z,11.66
2019-03-17T10:12:52.971Z,11.68
2019-03-17T10:15:22.585Z,11.71
2019-03-17T10:17:52.208Z,11.74
2019-03-17T10:20:22.021Z,11.77
2019-03-17T10:23:10.871Z,11.81
2019-03-17T10:25:40.333Z,11.83
2019-03-17T10:28:10.761Z,11.91
2019-03-17T10:30:40.276Z,11.95
2019-03-17T10:33:09.821Z,11.98
2019-03-17T10:35:39.342Z,12.00
2019-03-17T10:38:08.890Z,12.03
2019-03-17T10:40:38.401Z,12.05
2019-03-17T10:43:07.861Z,12.07
2019-03-17T10:45:37.491Z,12.10
2019-03-17T10:48:06.949Z,12.12
2019-03-17T10:50:48.723Z,12.13
2019-03-17T10:53:07.787Z,12.13
2019-03-17T10:55:37.283Z,12.15
2019-03-17T10:58:06.828Z,12.15
2019-03-17T11:00:36.321Z,12.17
2019-03-17T11:03:06.005Z,12.20
2019-03-17T11:05:35.510Z,12.22
2019-03-17T11:08:05.083Z,12.27
2019-03-17T11:10:34.611Z,12.32
2019-03-17T11:13:04.185Z,12.39
2019-03-17T11:15:33.724Z,12.45
2019-03-17T11:18:03.208Z,12.53
2019-03-17T11:20:32.844Z,12.62
2019-03-17T11:23:02.391Z,12.73
2019-03-17T11:25:31.895Z,12.81
2019-03-17T11:28:01.467Z,12.91
2019-03-17T11:30:31.095Z,12.96
2019-03-17T11:33:00.634Z,12.99
2019-03-17T11:35:30.093Z,13.03
2019-03-17T11:37:59.576Z,13.07
2019-03-17T11:40:29.074Z,13.17
2019-03-17T11:42:58.568Z,13.28
2019-03-17T11:45:28.046Z,13.35
2019-03-17T11:47:57.620Z,13.41
2019-03-17T11:50:27.198Z,13.47
2019-03-17T11:52:56.667Z,13.53
2019-03-17T11:55:26.214Z,13.57
2019-03-17T11:57:55.767Z,13.59
2019-03-17T12:00:25.498Z,13.60
2019-03-17T12:02:55.032Z,13.55
2019-03-17T12:05:24.643Z,13.52
2019-03-17T12:07:55.101Z,13.44
2019-03-17T12:10:25.309Z,13.38
2019-03-17T12:12:54.907Z,13.31
2019-03-17T12:15:35.636Z,13.23
2019-03-17T12:18:05.302Z,13.20
2019-03-17T12:20:34.896Z,13.17
2019-03-17T12:23:04.524Z,13.15
2019-03-17T12:25:34.106Z,13.13
2019-03-17T12:28:03.648Z,13.13
2019-03-17T12:30:33.117Z,13.11
2019-03-17T12:33:02.714Z,13.10
2019-03-17T12:35:32.293Z,13.10
2019-03-17T12:38:01.761Z,13.12
2019-03-17T12:40:31.282Z,13.19
2019-03-17T12:43:00.766Z,13.28
2019-03-17T12:45:30.263Z,13.39
2019-03-17T12:47:59.742Z,13.48
2019-03-17T12:50:29.334Z,13.54
2019-03-17T12:52:58.926Z,13.53
2019-03-17T12:55:28.416Z,13.43
2019-03-17T12:57:57.999Z,13.27
2019-03-17T13:00:28.189Z,13.07
2019-03-17T13:02:57.750Z,12.93
2019-03-17T13:05:27.220Z,12.82
2019-03-17T13:07:56.857Z,12.77
2019-03-17T13:10:26.406Z,12.70
2019-03-17T13:12:55.914Z,12.59
2019-03-17T13:15:25.485Z,12.44
2019-03-17T13:17:55.010Z,12.20
2019-03-17T13:20:24.547Z,11.94
2019-03-17T13:22:54.058Z,11.71
2019-03-17T13:25:23.574Z,11.53
2019-03-17T13:27:53.114Z,11.36
2019-03-17T13:30:22.750Z,11.24
2019-03-17T13:32:52.223Z,11.17
2019-03-17T13:35:21.789Z,11.12
2019-03-17T13:37:51.258Z,11.10
2019-03-17T13:40:29.242Z,11.11
2019-03-17T13:42:52.805Z,11.13
2019-03-17T13:45:22.473Z,11.13
2019-03-17T13:47:53.167Z,11.14
2019-03-17T13:50:24.642Z,11.15
2019-03-17T13:52:54.107Z,11.14
2019-03-17T13:55:23.595Z,11.13
2019-03-17T13:58:08.937Z,11.11
2019-03-17T14:00:38.430Z,11.09
2019-03-17T14:03:07.988Z,11.08
2019-03-17T14:05:37.582Z,11.05
2019-03-17T14:08:07.062Z,11.01
2019-03-17T14:10:41.343Z,10.96
2019-03-17T14:13:07.835Z,10.91
2019-03-17T14:15:37.390Z,10.84
2019-03-17T14:18:06.979Z,10.81
2019-03-17T14:20:36.444Z,10.81
2019-03-17T14:23:06.102Z,10.85
2019-03-17T14:25:38.103Z,10.92
2019-03-17T14:28:07.609Z,11.03
2019-03-17T14:30:37.121Z,11.16
2019-03-17T14:33:06.738Z,11.27
2019-03-17T14:35:36.348Z,11.37
2019-03-17T14:38:05.950Z,11.47
2019-03-17T14:40:35.456Z,11.54
2019-03-17T14:43:05.052Z,11.62
2019-03-17T14:45:34.567Z,11.66
2019-03-17T14:48:04.216Z,11.69
2019-03-17T14:50:33.699Z,11.70
2019-03-17T14:53:03.175Z,11.72
2019-03-17T14:55:32.761Z,11.74
2019-03-17T14:58:02.236Z,11.77
2019-03-17T15:00:31.829Z,11.82
2019-03-17T15:03:01.328Z,11.86
2019-03-17T15:05:30.793Z,11.90
2019-03-17T15:08:00.310Z,11.91
2019-03-17T15:10:29.861Z,11.92
2019-03-17T15:12:59.510Z,11.93
2019-03-17T15:15:29.158Z,11.88
2019-03-17T15:17:58.629Z,11.87
2019-03-17T15:20:28.655Z,11.85
2019-03-17T15:22:58.293Z,11.82
2019-03-17T15:25:27.843Z,11.82
2019-03-17T15:27:57.334Z,11.79
2019-03-17T15:30:28.742Z,11.77
2019-03-17T15:32:58.416Z,11.72
2019-03-17T15:35:27.941Z,11.66
2019-03-17T15:37:57.500Z,11.53
2019-03-17T15:40:27.138Z,11.33
2019-03-17T15:42:56.663Z,11.14
2019-03-17T15:45:26.531Z,10.96
2019-03-17T15:47:56.088Z,10.82
2019-03-17T15:50:30.436Z,10.68
2019-03-17T15:53:00.009Z,10.57
2019-03-17T15:55:29.550Z,10.49
2019-03-17T15:57:59.092Z,10.46
2019-03-17T16:00:28.700Z,10.44
2019-03-17T16:02:58.376Z,10.45
2019-03-17T16:05:27.934Z,10.48
2019-03-17T16:07:57.479Z,10.49
2019-03-17T16:10:31.284Z,10.49
2019-03-17T16:13:00.839Z,10.47
2019-03-17T16:15:30.343Z,10.44
2019-03-17T16:17:59.800Z,10.40
2019-03-17T16:20:29.714Z,10.37
2019-03-17T16:22:59.251Z,10.34
2019-03-17T16:25:53.974Z,10.31
2019-03-17T16:28:23.455Z,10.29
2019-03-17T16:30:53.043Z,10.27
2019-03-17T16:33:22.605Z,10.27
2019-03-17T16:35:52.140Z,10.26
2019-03-17T16:38:21.728Z,10.29
2019-03-17T16:40:51.278Z,10.30
2019-03-17T16:43:20.855Z,10.32
2019-03-17T16:45:50.322Z,10.35
2019-03-17T16:48:19.824Z,10.37
2019-03-17T16:50:49.302Z,10.41
2019-03-17T16:53:19.735Z,10.47
2019-03-17T16:55:49.276Z,10.52
2019-03-17T16:58:18.779Z,10.54
2019-03-17T17:00:48.350Z,10.56
2019-03-17T17:03:17.871Z,10.56
2019-03-17T17:05:47.410Z,10.55
2019-03-17T17:08:16.881Z,10.53
2019-03-17T17:10:50.187Z,10.50
2019-03-17T17:13:17.670Z,10.46
2019-03-17T17:15:47.170Z,10.40
2019-03-17T17:18:16.732Z,10.35
2019-03-17T17:20:46.246Z,10.30
2019-03-17T17:23:15.731Z,10.25
2019-03-17T17:25:45.239Z,10.18
2019-03-17T17:28:14.895Z,10.14
2019-03-17T17:30:44.367Z,10.10
2019-03-17T17:33:13.947Z,10.05
2019-03-17T17:35:43.548Z,10.01
2019-03-17T17:38:13.154Z,9.96
2019-03-17T17:41:02.177Z,9.91
2019-03-17T17:43:31.637Z,9.87
2019-03-17T17:46:01.119Z,9.81
2019-03-17T17:48:30.763Z,9.77
2019-03-17T17:51:00.295Z,9.72
2019-03-17T17:53:29.836Z,9.68
2019-03-17T17:55:59.348Z,9.64
2019-03-17T17:58:28.824Z,9.60
2019-03-17T18:00:58.441Z,9.57
2019-03-17T18:03:27.947Z,9.55
2019-03-17T18:05:57.500Z,9.53
2019-03-17T18:08:27.016Z,9.52
2019-03-17T18:10:56.556Z,9.51
2019-03-17T18:13:26.050Z,9.50
2019-03-17T18:15:55.551Z,9.47
2019-03-17T18:18:25.057Z,9.46
2019-03-17T18:20:54.554Z,9.44
2019-03-17T18:23:24.085Z,9.44
2019-03-17T18:25:53.534Z,9.45
2019-03-17T18:28:23.067Z,9.44
2019-03-17T18:30:52.544Z,9.43
2019-03-17T18:33:22.039Z,9.36
2019-03-17T18:35:51.607Z,9.18
2019-03-17T18:38:21.194Z,8.96
2019-03-17T18:40:50.672Z,8.72
2019-03-17T18:43:20.284Z,8.48
2019-03-17T18:45:49.821Z,8.26
2019-03-17T18:48:19.352Z,8.07
2019-03-17T18:50:48.921Z,7.88
2019-03-17T18:53:18.489Z,7.76
2019-03-17T18:55:48.018Z,7.65
2019-03-17T18:58:17.487Z,7.55
2019-03-17T19:00:47.054Z,7.45
2019-03-17T19:03:16.649Z,7.36
2019-03-17T19:05:46.248Z,7.30
2019-03-17T19:08:15.737Z,7.24
2019-03-17T19:10:45.308Z,7.19
2019-03-17T19:13:14.960Z,7.14
2019-03-17T19:15:44.521Z,7.10
2019-03-17T19:18:14.106Z,7.08
2019-03-17T19:20:43.667Z,7.06
2019-03-17T19:23:13.111Z,7.04
2019-03-17T19:25:42.692Z,7.02
2019-03-17T19:28:12.192Z,7.00
2019-03-17T19:30:41.668Z,6.97
2019-03-17T19:33:11.197Z,6.95
2019-03-17T19:35:40.680Z,6.91
2019-03-17T19:38:10.184Z,6.87
2019-03-17T19:40:39.673Z,6.85
2019-03-17T19:43:09.181Z,6.81
2019-03-17T19:45:38.715Z,6.78
2019-03-17T19:48:08.325Z,6.74
2019-03-17T19:50:37.921Z,6.71
2019-03-17T19:53:07.539Z,6.66
2019-03-17T19:55:37.060Z,6.62
2019-03-17T19:58:06.718Z,6.57
2019-03-17T20:00:36.280Z,6.54
2019-03-17T20:03:05.847Z,6.50
2019-03-17T20:05:35.462Z,6.45
2019-03-17T20:08:04.982Z,6.41
2019-03-17T20:10:35.318Z,6.36
2019-03-17T20:13:11.550Z,6.32
2019-03-17T20:15:36.239Z,6.26
2019-03-17T20:18:05.741Z,6.21
2019-03-17T20:20:35.324Z,6.17
2019-03-17T20:23:04.848Z,6.11
2019-03-17T20:25:34.462Z,6.06
2019-03-17T20:28:04.130Z,6.01
2019-03-17T20:30:33.669Z,5.97
2019-03-17T20:33:03.214Z,5.92
2019-03-17T20:35:32.713Z,5.87
2019-03-17T20:38:02.207Z,5.82
2019-03-17T20:40:31.760Z,5.78
2019-03-17T20:43:01.250Z,5.74
2019-03-17T20:45:30.743Z,5.71
2019-03-17T20:48:00.292Z,5.67
2019-03-17T20:50:29.806Z,5.65
2019-03-17T20:52:59.512Z,5.61
2019-03-17T20:55:29.259Z,5.58
2019-03-17T20:57:59.113Z,5.54
2019-03-17T21:00:28.692Z,5.49
2019-03-17T21:02:58.194Z,5.45
2019-03-17T21:05:27.705Z,5.41
2019-03-17T21:07:57.260Z,5.37
2019-03-17T21:10:26.795Z,5.32
2019-03-17T21:12:56.751Z,5.29
2019-03-17T21:15:26.311Z,5.25
2019-03-17T21:17:55.826Z,5.20
2019-03-17T21:20:26.124Z,5.16
2019-03-17T21:22:55.615Z,5.12
2019-03-17T21:25:25.172Z,5.09
2019-03-17T21:27:54.653Z,5.05
2019-03-17T21:30:30.688Z,5.02
2019-03-17T21:33:00.338Z,4.98
2019-03-17T21:35:29.870Z,4.97
2019-03-17T21:37:59.517Z,4.97
2019-03-17T21:40:29.102Z,4.95
2019-03-17T21:42:58.620Z,4.98
2019-03-17T21:45:28.118Z,4.99
2019-03-17T21:47:57.610Z,5.00
2019-03-17T21:50:27.115Z,5.04
2019-03-17T21:52:56.661Z,5.08
2019-03-17T21:55:26.159Z,5.12
2019-03-17T21:57:55.717Z,5.18
2019-03-17T22:00:25.231Z,5.22
2019-03-17T22:02:55.333Z,5.26
2019-03-17T22:05:24.937Z,5.32
2019-03-17T22:07:54.441Z,5.39
2019-03-17T22:10:24.003Z,5.46
2019-03-17T22:12:53.496Z,5.53
2019-03-17T22:15:42.366Z,5.60
2019-03-17T22:18:11.886Z,5.66
2019-03-17T22:20:41.375Z,5.71
2019-03-17T22:23:10.884Z,5.75
2019-03-17T22:25:40.390Z,5.76
2019-03-17T22:28:09.874Z,5.77
2019-03-17T22:30:39.469Z,5.78
2019-03-17T22:33:08.929Z,5.80
2019-03-17T22:35:38.419Z,5.83
2019-03-17T22:38:07.898Z,5.84
2019-03-17T22:40:37.447Z,5.87
2019-03-17T22:43:06.914Z,5.90
2019-03-17T22:45:36.473Z,5.93
2019-03-17T22:48:06.092Z,5.94
2019-03-17T22:50:35.565Z,5.97
2019-03-17T22:53:05.131Z,5.99
2019-03-17T22:55:34.591Z,6.01
2019-03-17T22:58:04.083Z,6.03
2019-03-17T23:00:33.550Z,6.03
2019-03-17T23:03:03.187Z,6.04
2019-03-17T23:05:32.804Z,6.03
2019-03-17T23:08:02.303Z,6.04
2019-03-17T23:10:31.786Z,6.04
2019-03-17T23:13:01.377Z,6.04
2019-03-17T23:15:30.956Z,6.05
2019-03-17T23:18:00.413Z,6.06
2019-03-17T23:20:29.883Z,6.06
2019-03-17T23:22:59.368Z,6.05
2019-03-17T23:25:28.865Z,6.03
2019-03-17T23:27:58.343Z,6.03
2019-03-17T23:30:27.892Z,6.04
2019-03-17T23:32:57.700Z,6.02
2019-03-17T23:35:27.189Z,6.01
2019-03-17T23:37:56.690Z,6.00
2019-03-17T23:40:26.235Z,5.99
2019-03-17T23:42:55.724Z,6.00
2019-03-17T23:45:25.214Z,6.01
2019-03-17T23:47:54.719Z,5.99
2019-03-17T23:50:24.221Z,5.98
2019-03-17T23:52:53.697Z,5.97
2019-03-17T23:55:23.194Z,5.95
2019-03-17T23:57:52.699Z,5.93
